Time;durP1;ratioP1;P1;durP2;ratioP2;P2;SDS_P1;SDS_P2;PMS_P1;PMS_P2;Temp;Humidity;BMP_temperature;BMP_pressure;BME280_temperature;BME280_humidity;BME280_pressure;Samples;Min_cycle;Max_cycle;Signal;HPM_P1;HPM_P2
2022/09/12 00:01:50;;;;;;;15.63;10.45;;;;;;;14.13;100.00;94749.44;5097499;27;20055;-68
2022/09/12 00:04:17;;;;;;;13.38;10.90;;;;;;;14.12;100.00;94760.97;5097906;27;20519;-68
2022/09/12 00:06:44;;;;;;;12.45;10.23;;;;;;;13.95;100.00;94746.22;5099006;27;20707;-67
2022/09/12 00:09:12;;;;;;;13.63;10.77;;;;;;;14.01;100.00;94759.31;5080020;27;20035;-68
2022/09/12 00:11:42;;;;;;;15.27;10.93;;;;;;;14.01;100.00;94761.94;5097991;27;20104;-68
2022/09/12 00:14:13;;;;;;;14.73;11.35;;;;;;;14.00;100.00;94763.00;5103806;27;20047;-68
2022/09/12 00:16:41;;;;;;;14.93;11.48;;;;;;;14.01;100.00;94765.38;5077529;28;20063;-68
2022/09/12 00:19:09;;;;;;;16.27;11.82;;;;;;;14.00;100.00;94768.22;5097346;27;20035;-67
2022/09/12 00:21:38;;;;;;;15.65;11.85;;;;;;;13.80;100.00;94753.97;5079465;28;20104;-70
2022/09/12 00:24:06;;;;;;;17.73;12.38;;;;;;;13.91;100.00;94770.53;5099359;28;20100;-67
2022/09/12 00:26:33;;;;;;;14.57;12.10;;;;;;;13.84;100.00;94773.38;5095620;27;20051;-68
2022/09/12 00:28:59;;;;;;;15.60;11.45;;;;;;;13.82;100.00;94767.59;5098728;27;20036;-67
2022/09/12 00:31:27;;;;;;;17.85;12.90;;;;;;;13.84;100.00;94781.22;5098239;27;20773;-67
2022/09/12 00:33:56;;;;;;;20.75;12.23;;;;;;;13.81;100.00;94776.50;5062911;28;20035;-67
2022/09/12 00:36:24;;;;;;;17.02;12.02;;;;;;;13.60;100.00;94753.84;5097791;27;20075;-67
2022/09/12 00:38:52;;;;;;;15.10;11.82;;;;;;;13.76;100.00;94784.31;5080090;28;20119;-67
2022/09/12 00:41:25;;;;;;;16.08;11.80;;;;;;;13.72;100.00;94770.94;5096240;27;20048;-68
2022/09/12 00:44:00;;;;;;;18.40;12.43;;;;;;;13.67;100.00;94770.13;5097610;27;20046;-68
2022/09/12 00:46:47;;;;;;;16.58;11.30;;;;;;;13.69;100.00;94778.50;5095537;27;20052;-67
2022/09/12 00:49:28;;;;;;;14.55;11.90;;;;;;;13.64;100.00;94781.88;5096797;27;20041;-67
2022/09/12 00:52:07;;;;;;;15.02;12.20;;;;;;;13.48;100.00;94767.88;5099166;27;20046;-68
2022/09/12 00:55:00;;;;;;;17.23;12.18;;;;;;;13.54;100.00;94772.13;5096288;27;20078;-66
2022/09/12 00:57:34;;;;;;;15.45;11.23;;;;;;;13.45;100.00;94776.25;5098551;27;20094;-67
2022/09/12 01:00:14;;;;;;;18.20;11.52;;;;;;;13.38;100.00;94770.44;5098487;27;20044;-67
2022/09/12 01:02:48;;;;;;;13.45;11.57;;;;;;;13.35;100.00;94769.09;5099302;27;20035;-67
2022/09/12 01:05:15;;;;;;;19.33;11.68;;;;;;;13.24;100.00;94761.41;5098029;27;20124;-66
2022/09/12 01:07:43;;;;;;;12.57;10.77;;;;;;;13.24;100.00;94756.16;5100289;28;20083;-66
2022/09/12 01:10:10;;;;;;;18.45;10.55;;;;;;;13.23;100.00;94759.81;5097560;28;20043;-67
2022/09/12 01:12:40;;;;;;;14.13;11.55;;;;;;;13.24;100.00;94766.63;5099126;28;20036;-68
2022/09/12 01:15:08;;;;;;;15.02;11.25;;;;;;;13.20;100.00;94756.66;5097801;27;20040;-67
2022/09/12 01:18:10;;;;;;;14.30;10.75;;;;;;;13.24;100.00;94761.41;5081298;28;20587;-66
2022/09/12 01:21:10;;;;;;;14.98;10.98;;;;;;;13.18;100.00;94769.19;5094841;28;20047;-68
2022/09/12 01:24:15;;;;;;;12.82;10.20;;;;;;;13.13;100.00;94771.75;5102000;28;20063;-67
2022/09/12 01:26:51;;;;;;;13.52;9.98;;;;;;;13.08;100.00;94763.09;5063617;28;20063;-67
2022/09/12 01:29:26;;;;;;;17.75;10.40;;;;;;;13.03;100.00;94768.25;5100004;28;20043;-67
2022/09/12 01:32:00;;;;;;;15.13;10.93;;;;;;;13.00;100.00;94767.72;5099037;28;20100;-67
2022/09/12 01:34:52;;;;;;;13.77;11.40;;;;;;;12.87;100.00;94756.88;5103342;28;20122;-67
2022/09/12 01:37:31;;;;;;;17.88;10.18;;;;;;;12.95;100.00;94769.50;5095520;28;20468;-67
2022/09/12 01:40:15;;;;;;;19.63;11.60;;;;;;;12.88;100.00;94753.22;5100879;28;20449;-67
2022/09/12 01:43:02;;;;;;;17.67;10.70;;;;;;;12.96;100.00;94758.00;5097702;28;20051;-67
2022/09/12 01:45:45;;;;;;;16.30;10.63;;;;;;;12.97;100.00;94764.81;5077229;28;20079;-67
2022/09/12 01:48:19;;;;;;;18.65;11.70;;;;;;;12.95;100.00;94759.03;5095928;28;20051;-67
2022/09/12 01:51:04;;;;;;;16.25;11.70;;;;;;;12.92;100.00;94754.31;5101817;28;21604;-67
2022/09/12 01:53:41;;;;;;;13.75;10.98;;;;;;;12.88;100.00;94748.00;5082342;28;20589;-68
2022/09/12 01:56:28;;;;;;;14.90;10.70;;;;;;;12.93;100.00;94750.66;5079159;28;20163;-68
2022/09/12 01:59:06;;;;;;;14.93;9.43;;;;;;;12.91;100.00;94747.47;5107545;27;20112;-67
2022/09/12 02:01:53;;;;;;;13.73;10.77;;;;;;;12.89;100.00;94749.56;5100314;28;20547;-68
2022/09/12 02:04:43;;;;;;;13.48;9.77;;;;;;;12.81;100.00;94748.97;5082502;28;20055;-68
2022/09/12 02:07:17;;;;;;;20.30;10.75;;;;;;;12.82;100.00;94755.78;5105770;27;20055;-68
2022/09/12 02:09:49;;;;;;;13.32;10.35;;;;;;;12.73;100.00;94746.81;5105268;27;20043;-68
2022/09/12 02:12:20;;;;;;;13.50;10.90;;;;;;;12.71;100.00;94755.91;5071990;28;20157;-67
2022/09/12 02:14:54;;;;;;;12.95;9.68;;;;;;;12.66;100.00;94746.22;5082760;28;20047;-68
2022/09/12 02:17:23;;;;;;;12.63;9.57;;;;;;;12.63;100.00;94751.94;5103644;27;20083;-68
2022/09/12 02:20:05;;;;;;;12.02;8.32;;;;;;;12.62;100.00;94752.94;5102183;27;20093;-67
2022/09/12 02:22:34;;;;;;;11.35;9.13;;;;;;;12.54;100.00;94756.00;5104075;27;20043;-68
2022/09/12 02:25:04;;;;;;;13.73;9.32;;;;;;;12.53;100.00;94752.63;5102325;27;20035;-68
2022/09/12 02:27:43;;;;;;;14.07;9.13;;;;;;;12.45;100.00;94744.41;5083968;27;20242;-68
2022/09/12 02:30:13;;;;;;;15.50;9.77;;;;;;;12.50;100.00;94757.53;5101987;27;20135;-67
2022/09/12 02:32:50;;;;;;;15.35;9.27;;;;;;;12.36;100.00;94744.06;5083201;27;20047;-68
2022/09/12 02:35:50;;;;;;;12.15;9.48;;;;;;;12.47;100.00;94758.00;5100191;28;20541;-68
2022/09/12 02:38:25;;;;;;;15.85;9.13;;;;;;;12.33;100.00;94758.38;5083346;27;20147;-68
2022/09/12 02:40:53;;;;;;;11.68;8.60;;;;;;;12.24;100.00;94744.16;5095991;27;20797;-67
2022/09/12 02:43:20;;;;;;;15.07;9.02;;;;;;;12.32;100.00;94762.03;5104869;27;20551;-67
2022/09/12 02:45:47;;;;;;;14.43;8.57;;;;;;;12.28;100.00;94762.75;5095968;27;20034;-68
2022/09/12 02:48:25;;;;;;;13.63;8.55;;;;;;;12.25;100.00;94761.41;5100224;27;20140;-67
2022/09/12 02:50:53;;;;;;;11.43;8.57;;;;;;;12.23;100.00;94763.50;5097923;27;20664;-67
2022/09/12 02:53:21;;;;;;;12.63;8.73;;;;;;;12.18;100.00;94755.59;5101919;27;20043;-68
2022/09/12 02:55:49;;;;;;;11.93;9.43;;;;;;;12.10;100.00;94748.16;5107920;27;20040;-67
2022/09/12 02:58:19;;;;;;;11.63;8.95;;;;;;;12.09;100.00;94749.22;5081544;28;20024;-67
2022/09/12 03:01:04;;;;;;;13.02;9.93;;;;;;;12.08;100.00;94747.63;5097271;27;20764;-67
2022/09/12 03:03:58;;;;;;;11.43;9.00;;;;;;;12.03;100.00;94753.56;5100532;27;20145;-71
2022/09/12 03:06:51;;;;;;;16.58;9.20;;;;;;;12.00;100.00;94756.66;5097817;27;20119;-68
2022/09/12 03:18:31;;;;;;;13.32;9.57;;;;;;;11.73;100.00;94759.13;5096858;27;20060;-68
2022/09/12 03:21:42;;;;;;;12.68;10.23;;;;;;;11.73;100.00;94764.34;5103315;27;20044;-67
2022/09/12 03:24:19;;;;;;;14.30;9.57;;;;;;;11.72;100.00;94752.31;5098365;27;20111;-67
2022/09/12 03:26:54;;;;;;;14.30;10.32;;;;;;;11.75;100.00;94762.28;5081116;28;20059;-68
2022/09/12 03:29:23;;;;;;;18.52;11.27;;;;;;;11.75;100.00;94752.63;5099615;27;20035;-68
2022/09/12 03:31:56;;;;;;;14.10;10.43;;;;;;;11.73;100.00;94753.91;5084429;27;20043;-68
2022/09/12 03:34:25;;;;;;;19.02;11.05;;;;;;;11.48;100.00;94727.22;5109253;27;20517;-68
2022/09/12 03:36:54;;;;;;;22.52;11.15;;;;;;;11.65;100.00;94762.94;5100752;28;20054;-67
2022/09/12 03:39:25;;;;;;;15.93;11.68;;;;;;;11.62;100.00;94761.59;5098794;27;20116;-68
2022/09/12 03:41:53;;;;;;;14.73;11.52;;;;;;;11.58;100.00;94752.66;5100249;27;20040;-68
2022/09/12 03:44:20;;;;;;;15.52;11.10;;;;;;;11.54;100.00;94746.34;5079400;28;20040;-67
2022/09/12 03:46:47;;;;;;;19.15;12.45;;;;;;;11.64;100.00;94762.13;5083931;28;20062;-67
2022/09/12 03:49:14;;;;;;;19.00;11.65;;;;;;;11.61;100.00;94762.63;5100850;27;20047;-68
2022/09/12 03:51:42;;;;;;;19.42;11.70;;;;;;;11.60;100.00;94761.03;5084220;27;20041;-67
2022/09/12 03:54:10;;;;;;;17.60;12.60;;;;;;;11.66;100.00;94769.72;5105792;27;20043;-68
2022/09/12 03:56:38;;;;;;;17.35;12.98;;;;;;;11.64;100.00;94764.75;5103821;27;20047;-73
2022/09/12 03:59:05;;;;;;;16.08;12.73;;;;;;;11.73;100.00;94774.78;5083948;27;20093;-72
2022/09/12 04:01:33;;;;;;;20.65;12.55;;;;;;;11.64;100.00;94764.75;5101120;27;20080;-73
2022/09/12 04:04:00;;;;;;;16.70;11.70;;;;;;;11.60;100.00;94761.03;5082158;28;20042;-72
2022/09/12 04:06:27;;;;;;;22.33;12.38;;;;;;;11.64;100.00;94772.56;5079575;27;20798;-73
2022/09/12 04:08:54;;;;;;;17.10;12.45;;;;;;;11.66;100.00;94774.94;5097529;27;20150;-72
2022/09/12 04:11:22;;;;;;;21.25;11.98;;;;;;;11.61;100.00;94778.28;5077433;28;20812;-73
2022/09/12 04:13:49;;;;;;;15.25;11.95;;;;;;;11.59;100.00;94782.94;5103253;27;20039;-73
2022/09/12 04:16:17;;;;;;;16.80;11.57;;;;;;;11.60;100.00;94781.91;5098642;27;20453;-73
2022/09/12 04:18:45;;;;;;;16.05;10.90;;;;;;;11.70;100.00;94796.13;5065252;28;20036;-73
2022/09/12 04:21:18;;;;;;;13.88;10.50;;;;;;;11.62;100.00;94795.50;5080197;28;20048;-73
2022/09/12 04:23:45;;;;;;;14.00;10.93;;;;;;;11.61;100.00;94793.94;5083523;28;20039;-72
2022/09/12 04:26:13;;;;;;;21.77;12.77;;;;;;;11.57;100.00;94777.16;5098997;28;20632;-73
2022/09/12 04:28:40;;;;;;;16.35;11.10;;;;;;;11.66;100.00;94791.38;5099728;27;20040;-72
2022/09/12 04:31:12;;;;;;;17.45;10.93;;;;;;;11.80;100.00;94796.28;5102566;27;20697;-72
2022/09/12 04:33:38;;;;;;;14.73;11.15;;;;;;;11.73;100.00;94780.00;5104526;27;20551;-73
2022/09/12 04:36:08;;;;;;;17.30;11.27;;;;;;;11.85;100.00;94788.53;5107013;27;20036;-73
2022/09/12 04:38:36;;;;;;;20.48;11.95;;;;;;;11.84;100.00;94792.16;5083846;27;20556;-73
2022/09/12 04:41:23;;;;;;;17.80;11.60;;;;;;;11.93;100.00;94801.19;5088476;27;20063;-74
2022/09/12 04:43:52;;;;;;;16.17;10.77;;;;;;;11.94;100.00;94801.97;5080647;28;20051;-73
2022/09/12 04:46:20;;;;;;;16.45;11.60;;;;;;;11.90;100.00;94809.50;5083436;28;20046;-74
2022/09/12 04:48:48;;;;;;;15.88;11.65;;;;;;;11.90;100.00;94806.06;5078511;28;20035;-73
2022/09/12 04:51:26;;;;;;;16.00;11.82;;;;;;;11.90;100.00;94809.50;5083795;28;20052;-73
2022/09/12 04:53:57;;;;;;;18.30;12.00;;;;;;;11.83;100.00;94795.81;5102408;27;20067;-73
2022/09/12 04:56:25;;;;;;;13.48;10.77;;;;;;;11.92;100.00;94804.84;5105140;27;20046;-73
2022/09/12 04:58:52;;;;;;;17.80;11.55;;;;;;;11.98;100.00;94806.50;5099291;28;20129;-73
2022/09/12 05:01:21;;;;;;;17.38;11.25;;;;;;;11.93;100.00;94801.19;5073444;27;20079;-73
2022/09/12 05:03:49;;;;;;;15.10;11.00;;;;;;;11.99;100.00;94810.69;5078418;28;20039;-73
2022/09/12 05:06:22;;;;;;;15.93;10.75;;;;;;;12.10;100.00;94811.63;5083120;28;20049;-73
2022/09/12 05:08:50;;;;;;;15.27;10.97;;;;;;;12.21;100.00;94823.00;5098369;28;20031;-73
2022/09/12 05:11:23;;;;;;;17.23;12.25;;;;;;;12.21;100.00;94802.09;5084859;28;20224;-73
2022/09/12 05:14:07;;;;;;;14.10;11.13;;;;;;;12.38;100.00;94813.28;5102193;28;20128;-74
2022/09/12 05:16:33;;;;;;;18.48;12.25;;;;;;;12.41;100.00;94812.81;5099545;27;20051;-74
2022/09/12 05:19:01;;;;;;;21.00;13.52;;;;;;;12.43;100.00;94810.72;5085782;28;20109;-74
2022/09/12 05:21:28;;;;;;;17.75;12.35;;;;;;;12.51;100.00;94817.34;5100186;28;20047;-73
2022/09/12 05:23:58;;;;;;;17.02;11.77;;;;;;;12.51;100.00;94806.13;5097979;28;20059;-73
2022/09/12 05:26:25;;;;;;;15.70;11.88;;;;;;;12.61;100.00;94816.69;5083394;28;20096;-73
2022/09/12 05:28:52;;;;;;;16.55;13.25;;;;;;;12.67;100.00;94809.72;5100490;28;21366;-73
2022/09/12 05:31:22;;;;;;;20.30;13.30;;;;;;;12.69;100.00;94812.84;5084392;28;20049;-73
2022/09/12 05:33:51;;;;;;;20.63;14.05;;;;;;;12.75;100.00;94812.69;5085213;28;20035;-73
2022/09/12 05:36:24;;;;;;;22.08;14.15;;;;;;;12.82;100.00;94808.06;5103599;28;20043;-73
2022/09/12 05:38:51;;;;;;;16.65;11.50;;;;;;;12.80;100.00;94801.47;5078769;28;20039;-73
2022/09/12 05:41:20;;;;;;;19.15;12.35;;;;;;;12.95;100.00;94816.56;5112107;27;20051;-73
2022/09/12 05:43:56;;;;;;;16.35;12.25;;;;;;;13.01;100.00;94815.56;5084786;27;20506;-73
2022/09/12 05:46:28;;;;;;;17.60;12.00;;;;;;;13.06;100.00;94818.22;5081530;28;20238;-73
2022/09/12 05:48:56;;;;;;;18.77;12.10;;;;;;;13.08;100.00;94816.16;5100773;27;20106;-73
2022/09/12 05:51:25;;;;;;;19.05;11.48;;;;;;;13.19;100.00;94812.59;5082877;28;20103;-72
2022/09/12 05:53:55;;;;;;;16.65;10.57;;;;;;;13.25;100.00;94805.59;5082057;28;20043;-73
2022/09/12 05:56:27;;;;;;;18.13;11.38;;;;;;;13.35;100.00;94804.94;5100480;27;20580;-73
2022/09/12 05:58:59;;;;;;;15.15;11.23;;;;;;;13.37;100.00;94808.09;5102626;27;20127;-73
2022/09/12 06:01:26;;;;;;;18.23;10.77;;;;;;;13.48;100.00;94794.03;5108946;27;20043;-73
2022/09/12 06:03:56;;;;;;;15.65;11.98;;;;;;;13.56;100.00;94800.66;5082110;27;20549;-67
2022/09/12 06:06:24;;;;;;;14.65;11.75;;;;;;;13.61;100.00;94797.28;5108156;27;20817;-68
2022/09/12 06:08:54;;;;;;;14.82;10.45;;;;;;;13.74;100.00;94794.25;5100317;27;20109;-68
2022/09/12 06:11:25;;;;;;;17.05;12.05;;;;;;;13.82;100.00;94799.00;5113548;27;20051;-67
2022/09/12 06:13:52;;;;;;;18.85;11.90;;;;;;;13.87;100.00;94791.19;5107156;27;20043;-67
2022/09/12 06:16:21;;;;;;;24.90;11.88;;;;;;;13.94;100.00;94802.25;5105073;27;20035;-69
2022/09/12 06:18:50;;;;;;;17.40;11.65;;;;;;;14.06;100.00;94793.41;5079547;27;20043;-69
2022/09/12 06:21:18;;;;;;;18.38;11.65;;;;;;;14.16;100.00;94793.47;5101228;27;20100;-69
2022/09/12 06:23:46;;;;;;;16.35;11.57;;;;;;;14.22;100.00;94796.88;5099957;27;20159;-68
2022/09/12 06:26:16;;;;;;;15.93;12.70;;;;;;;14.32;100.00;94792.50;5108605;27;20035;-69
2022/09/12 06:28:44;;;;;;;18.30;12.18;;;;;;;14.38;100.00;94785.44;5103706;27;20055;-68
2022/09/12 06:31:14;;;;;;;17.77;12.57;;;;;;;14.42;100.00;94790.97;5104657;27;20043;-68
2022/09/12 06:33:44;;;;;;;17.10;12.05;;;;;;;14.64;100.00;94794.25;5101049;27;20070;-68
2022/09/12 06:36:17;;;;;;;17.65;12.48;;;;;;;14.69;100.00;94802.13;5102709;27;20083;-68
2022/09/12 06:38:50;;;;;;;19.40;11.80;;;;;;;14.78;100.00;94804.22;5103558;27;20305;-68
2022/09/12 06:41:16;;;;;;;26.58;12.82;;;;;;;14.84;100.00;94803.22;5095372;27;20291;-68
2022/09/12 06:43:43;;;;;;;17.08;11.15;;;;;;;14.81;100.00;94798.47;5081987;27;20044;-69
2022/09/12 06:46:11;;;;;;;15.30;9.85;;;;;;;14.84;100.00;94809.25;5076821;27;20076;-68
2022/09/12 06:48:39;;;;;;;11.55;8.70;;;;;;;14.78;100.00;94809.47;5080476;27;20694;-69
2022/09/12 06:51:11;;;;;;;16.77;9.90;;;;;;;14.74;100.00;94818.91;5099323;27;20182;-69
2022/09/12 06:53:39;;;;;;;16.00;11.25;;;;;;;14.79;100.00;94811.06;5063769;27;20616;-69
2022/09/12 06:56:10;;;;;;;12.75;9.95;;;;;;;14.91;100.00;94814.25;5099497;27;21443;-71
2022/09/12 06:58:37;;;;;;;13.45;10.27;;;;;;;14.81;100.00;94798.47;5081726;27;20047;-76
2022/09/12 07:01:09;;;;;;;14.60;10.40;;;;;;;15.05;100.00;94820.59;5094616;27;20044;-69
2022/09/12 07:03:37;;;;;;;16.52;10.95;;;;;;;15.05;100.00;94801.41;5097498;27;20066;-71
2022/09/12 07:06:06;;;;;;;15.45;10.45;;;;;;;15.38;100.00;94828.25;5093352;27;20204;-67
2022/09/12 07:08:35;;;;;;;13.75;10.43;;;;;;;15.39;100.00;94825.34;5099625;27;20069;-70
2022/09/12 07:11:11;;;;;;;12.93;10.18;;;;;;;15.51;100.00;94832.19;5101567;27;20027;-67
2022/09/12 07:13:40;;;;;;;16.27;10.63;;;;;;;15.63;100.00;94835.34;5101550;27;20459;-69
2022/09/12 07:16:09;;;;;;;11.77;9.45;;;;;;;15.76;100.00;94813.84;5088539;27;20063;-69
2022/09/12 07:18:37;;;;;;;12.45;9.70;;;;;;;15.83;100.00;94824.88;5103024;27;20144;-72
2022/09/12 07:21:07;;;;;;;14.23;10.15;;;;;;;15.96;100.00;94820.13;5087220;28;21034;-73
2022/09/12 07:23:34;;;;;;;11.10;8.88;;;;;;;16.06;100.00;94822.72;5080595;27;20055;-72
2022/09/12 07:26:01;;;;;;;10.38;8.02;;;;;;;16.07;100.00;94834.81;5101946;27;20074;-68
2022/09/12 07:28:31;;;;;;;13.43;8.82;;;;;;;16.16;100.00;94830.59;5097539;27;20104;-70
2022/09/12 07:31:05;;;;;;;8.57;7.68;;;;;;;16.21;100.00;94825.34;5083817;28;20043;-70
2022/09/12 07:33:32;;;;;;;11.45;7.85;;;;;;;16.20;100.00;94813.25;5098733;27;20586;-70
2022/09/12 07:36:05;;;;;;;8.57;7.40;;;;;;;16.37;100.00;94822.69;5066300;28;20062;-70
2022/09/12 07:38:32;;;;;;;8.45;6.75;;;;;;;16.49;100.00;94820.53;5097720;27;20040;-70
2022/09/12 07:41:00;;;;;;;8.60;7.20;;;;;;;16.56;100.00;94818.41;5098683;27;20035;-68
2022/09/12 07:43:27;;;;;;;10.65;8.18;;;;;;;16.62;100.00;94798.94;5082707;28;20386;-68
2022/09/12 07:45:55;;;;;;;12.18;9.50;;;;;;;16.86;100.00;94829.91;5081305;28;20047;-68
2022/09/12 07:48:22;;;;;;;9.38;7.13;;;;;;;17.04;100.00;94819.84;5101481;27;20035;-69
2022/09/12 07:51:04;;;;;;;12.30;7.50;;;;;;;17.33;100.00;94823.31;5082633;27;20038;-69
2022/09/12 07:53:33;;;;;;;9.07;7.50;;;;;;;17.50;100.00;94816.88;5099385;27;20047;-67
2022/09/12 07:56:01;;;;;;;8.15;6.75;;;;;;;17.46;100.00;94810.59;5101413;27;20146;-68
2022/09/12 07:58:30;;;;;;;8.88;6.80;;;;;;;17.27;100.00;94824.44;5104449;27;20051;-67
2022/09/12 08:01:07;;;;;;;6.88;6.15;;;;;;;17.22;100.00;94800.78;5103928;27;20124;-68
2022/09/12 08:03:35;;;;;;;7.07;6.32;;;;;;;17.56;100.00;94815.81;5084041;27;20104;-68
2022/09/12 08:06:06;;;;;;;8.05;6.05;;;;;;;17.86;100.00;94819.28;5080795;28;20142;-68
2022/09/12 08:08:33;;;;;;;9.27;6.00;;;;;;;18.09;100.00;94823.81;5099826;27;20143;-69
2022/09/12 08:11:04;;;;;;;6.28;5.65;;;;;;;18.28;100.00;94826.53;5098812;27;20051;-68
2022/09/12 08:13:33;;;;;;;8.18;5.88;;;;;;;18.09;100.00;94812.47;5100663;27;20065;-68
2022/09/12 08:16:03;;;;;;;9.18;5.75;;;;;;;18.18;100.00;94825.84;5099422;27;20520;-66
2022/09/12 08:18:31;;;;;;;14.48;5.45;;;;;;;18.39;100.00;94814.03;5102921;27;20049;-68
2022/09/12 08:21:00;;;;;;;5.75;4.60;;;;;;;18.80;99.72;94824.13;5097314;27;20096;-68
2022/09/12 08:23:28;;;;;;;6.13;5.45;;;;;;;18.90;99.04;94821.38;5099207;27;20047;-68
2022/09/12 08:26:02;;;;;;;6.55;5.88;;;;;;;19.15;100.00;94824.75;5099458;27;20661;-67
2022/09/12 08:28:34;;;;;;;7.90;5.13;;;;;;;18.79;98.37;94829.69;5098971;27;20041;-67
2022/09/12 08:31:06;;;;;;;5.15;4.65;;;;;;;18.77;99.20;94821.25;5100778;27;20043;-68
2022/09/12 08:33:34;;;;;;;4.22;3.83;;;;;;;18.74;98.08;94827.88;5100429;27;20046;-68
2022/09/12 08:36:06;;;;;;;6.43;5.28;;;;;;;18.69;97.36;94830.56;5081919;28;20039;-67
2022/09/12 08:38:34;;;;;;;5.63;5.00;;;;;;;18.93;98.06;94821.91;5098555;27;20113;-67
2022/09/12 08:41:19;;;;;;;7.20;4.93;;;;;;;19.08;95.38;94816.41;5086862;28;20743;-68
2022/09/12 08:43:58;;;;;;;5.43;4.07;;;;;;;19.23;93.99;94813.56;5099287;27;20055;-69
2022/09/12 08:46:37;;;;;;;5.10;4.60;;;;;;;19.52;92.06;94815.25;5102473;28;20047;-74
2022/09/12 08:49:09;;;;;;;5.32;4.50;;;;;;;19.55;85.06;94819.94;5077974;27;20044;-72
2022/09/12 08:51:38;;;;;;;6.15;5.22;;;;;;;19.63;85.67;94811.38;5066598;28;20460;-74
2022/09/12 08:54:18;;;;;;;4.47;4.07;;;;;;;19.80;85.12;94788.94;5076951;27;20762;-72
2022/09/12 08:56:47;;;;;;;4.60;4.10;;;;;;;19.74;83.60;94816.53;5083034;27;20184;-71
2022/09/12 08:59:14;;;;;;;5.70;4.32;;;;;;;19.66;85.41;94800.25;5105075;27;20123;-72
2022/09/12 09:01:44;;;;;;;7.00;4.57;;;;;;;19.54;83.90;94812.34;5108980;27;20434;-68
2022/09/12 09:04:19;;;;;;;7.35;4.70;;;;;;;19.22;84.90;94841.03;5100264;27;20055;-67
2022/09/12 09:06:57;;;;;;;6.72;4.22;;;;;;;19.25;84.74;94810.66;5105357;27;20043;-67
2022/09/12 09:10:07;;;;;;;8.75;4.63;;;;;;;19.17;85.18;94809.41;5098377;28;20116;-69
2022/09/12 09:12:36;;;;;;;5.03;4.43;;;;;;;19.46;83.80;94805.81;5101852;27;20051;-72
2022/09/12 09:15:23;;;;;;;5.18;4.60;;;;;;;19.20;84.46;94795.66;5077974;28;20044;-73
2022/09/12 09:18:03;;;;;;;8.70;4.78;;;;;;;19.16;85.50;94791.22;5082255;28;20047;-77
2022/09/12 09:20:50;;;;;;;4.95;4.10;;;;;;;19.48;84.97;94803.69;5076684;28;20031;-67
2022/09/12 09:23:30;;;;;;;4.32;3.83;;;;;;;19.29;83.52;94811.63;5100389;28;20047;-67
2022/09/12 09:26:13;;;;;;;4.50;3.85;;;;;;;19.11;84.10;94794.72;5079649;28;20130;-69
2022/09/12 09:28:50;;;;;;;4.43;4.03;;;;;;;19.27;84.55;94797.94;5100430;28;20047;-69
2022/09/12 09:31:20;;;;;;;3.42;3.10;;;;;;;19.27;82.55;94796.06;5095070;28;20114;-72
2022/09/12 09:33:56;;;;;;;7.63;3.63;;;;;;;19.22;82.88;94803.28;5105622;28;20044;-71
2022/09/12 09:36:48;;;;;;;4.53;4.13;;;;;;;19.11;84.57;94789.44;5092178;28;20039;-72
2022/09/12 09:39:24;;;;;;;9.93;5.20;;;;;;;19.05;83.45;94785.28;5106305;28;20081;-71
2022/09/12 09:42:15;;;;;;;4.53;4.13;;;;;;;18.93;84.03;94790.22;5107725;28;20483;-71
2022/09/12 09:44:47;;;;;;;6.32;4.93;;;;;;;18.74;85.33;94783.03;5106103;28;20075;-71
2022/09/12 09:47:14;;;;;;;5.38;4.45;;;;;;;18.66;84.16;94778.41;5083322;28;20063;-71
2022/09/12 09:49:41;;;;;;;6.82;5.25;;;;;;;18.75;83.22;94771.41;5107178;28;20156;-71
2022/09/12 09:52:13;;;;;;;7.28;4.45;;;;;;;18.94;83.32;94778.59;5103732;28;20097;-70
2022/09/12 09:54:49;;;;;;;6.18;4.70;;;;;;;19.06;81.91;94781.59;5066244;28;20104;-68
2022/09/12 09:57:33;;;;;;;5.55;4.30;;;;;;;19.22;82.30;94775.03;5100764;28;20096;-68
2022/09/12 10:00:27;;;;;;;5.03;4.53;;;;;;;19.42;80.78;94789.78;5106445;28;20032;-68
2022/09/12 10:03:13;;;;;;;10.07;5.10;;;;;;;19.68;81.27;94779.59;5095200;28;20039;-69
2022/09/12 10:05:49;;;;;;;5.93;4.85;;;;;;;19.61;79.53;94776.56;5099422;28;20063;-68
2022/09/12 10:08:21;;;;;;;6.53;4.68;;;;;;;19.53;80.86;94779.84;5098430;28;20799;-68
2022/09/12 10:11:03;;;;;;;8.82;5.43;;;;;;;19.49;80.01;94781.50;5099627;28;20044;-68
2022/09/12 10:13:38;;;;;;;6.65;5.53;;;;;;;19.50;80.36;94775.16;5098996;28;20068;-69
2022/09/12 10:16:18;;;;;;;5.85;5.25;;;;;;;19.79;78.10;94776.81;5105044;28;20926;-69
2022/09/12 10:18:45;;;;;;;6.35;5.35;;;;;;;19.72;78.61;94777.16;5095389;28;20057;-67
2022/09/12 10:21:34;;;;;;;5.55;4.93;;;;;;;19.63;78.51;94790.25;5099477;28;20035;-66
2022/09/12 10:24:25;;;;;;;6.47;5.35;;;;;;;19.54;78.97;94770.84;5095154;28;20064;-67
2022/09/12 10:27:08;;;;;;;5.72;5.07;;;;;;;19.65;78.27;94774.88;5081284;28;20509;-67
2022/09/12 10:29:44;;;;;;;4.88;4.25;;;;;;;19.76;77.06;94772.13;5099524;27;20617;-67
2022/09/12 10:32:35;;;;;;;16.55;4.93;;;;;;;19.82;76.86;94778.88;5104460;27;20778;-68
2022/09/12 10:35:07;;;;;;;7.43;4.43;;;;;;;20.01;76.60;94771.66;5089097;27;21524;-68
2022/09/12 10:37:38;;;;;;;6.72;4.28;;;;;;;19.70;76.29;94763.47;5083962;28;20832;-68
2022/09/12 10:40:19;;;;;;;5.88;4.35;;;;;;;19.75;76.02;94768.66;5099441;27;20116;-67
2022/09/12 10:42:50;;;;;;;4.22;3.83;;;;;;;19.72;76.12;94776.38;5103602;27;20662;-68
2022/09/12 10:45:20;;;;;;;4.68;4.00;;;;;;;19.58;76.43;94781.63;5102886;27;20035;-68
2022/09/12 10:47:48;;;;;;;7.57;4.57;;;;;;;19.47;76.09;94796.84;5102255;27;20108;-67
2022/09/12 10:50:40;;;;;;;10.20;5.25;;;;;;;19.42;75.58;94779.22;5097846;27;20164;-67
2022/09/12 10:53:26;;;;;;;5.40;4.55;;;;;;;19.36;75.85;94774.31;5092767;27;20082;-67
2022/09/12 10:56:11;;;;;;;4.95;4.45;;;;;;;19.49;74.66;94781.50;5099655;27;20039;-67
2022/09/12 10:58:44;;;;;;;7.72;4.75;;;;;;;19.53;71.60;94798.31;5100801;27;20081;-67
2022/09/12 11:01:19;;;;;;;6.95;4.03;;;;;;;19.24;71.89;94783.44;5101198;27;20670;-67
2022/09/12 11:03:52;;;;;;;5.47;3.67;;;;;;;19.24;71.16;94778.16;5103923;27;20076;-67
2022/09/12 11:06:30;;;;;;;5.78;5.05;;;;;;;19.20;72.39;94793.00;5098302;27;20050;-67
2022/09/12 11:09:03;;;;;;;14.95;5.32;;;;;;;19.12;71.39;94775.16;5099545;27;20051;-67
2022/09/12 11:11:30;;;;;;;6.05;5.45;;;;;;;19.31;73.00;94777.03;5104998;27;20109;-67
2022/09/12 11:14:28;;;;;;;5.85;5.25;;;;;;;19.71;73.05;94767.66;5101786;27;20579;-68
2022/09/12 11:17:05;;;;;;;6.38;5.57;;;;;;;19.92;74.58;94744.34;5097973;27;20796;-68
2022/09/12 11:19:53;;;;;;;7.30;5.85;;;;;;;20.07;73.89;94750.44;5102170;27;20451;-68
2022/09/12 11:22:45;;;;;;;8.57;4.90;;;;;;;20.23;68.61;94759.66;5080585;28;20039;-68
2022/09/12 11:25:33;;;;;;;4.75;3.70;;;;;;;19.89;67.84;94750.22;5099992;27;20043;-68
2022/09/12 11:28:14;;;;;;;6.53;4.90;;;;;;;19.99;67.65;94738.69;5097340;27;20047;-67
2022/09/12 11:31:10;;;;;;;5.75;4.18;;;;;;;19.96;65.93;94798.19;5106550;27;20036;-73
2022/09/12 11:33:45;;;;;;;6.60;4.82;;;;;;;20.12;66.08;94753.75;5068986;27;20759;-69
2022/09/12 11:36:38;;;;;;;9.73;5.18;;;;;;;20.22;66.16;94795.09;5101659;27;20043;-67
2022/09/12 11:39:15;;;;;;;8.13;4.30;;;;;;;20.65;63.30;94770.25;5082026;28;20051;-68
2022/09/12 11:41:53;;;;;;;8.75;5.13;;;;;;;20.84;64.79;94756.91;5105750;27;20050;-68
2022/09/12 11:44:25;;;;;;;4.97;4.32;;;;;;;21.06;59.01;94754.28;5101318;27;20163;-68
2022/09/12 11:46:52;;;;;;;5.88;4.40;;;;;;;21.20;58.74;94760.31;5083621;27;20055;-68
2022/09/12 11:49:30;;;;;;;5.45;4.90;;;;;;;21.06;58.68;94759.56;5097820;27;20043;-70
2022/09/12 11:52:17;;;;;;;12.02;5.82;;;;;;;20.72;58.57;94758.16;5084498;28;20032;-68
2022/09/12 11:54:59;;;;;;;6.00;4.88;;;;;;;20.80;59.54;94752.19;5080331;27;20039;-68
2022/09/12 11:57:29;;;;;;;13.18;4.82;;;;;;;21.35;59.95;94745.16;5101646;27;20051;-67
2022/09/12 12:00:19;;;;;;;6.30;5.22;;;;;;;21.66;58.64;94742.59;5098369;27;20094;-68